Blind Lake, Minnesota
Current Conditions -  °F | °C
As of 6:54 AM on Saturday 25 Oct 2014 (Local Time) from KPWC Reporting Station
Clear Clear  
Wind Chill: 42°   Ceiling: Unl
Heat Index: 45°   Visibility: 10mi
Dew Point: 32°   Wind: 5mph
Humidity: 61%   Direction: 280°W
Pressure: 30.01"   Gusts: NA
Location:  46.6535°N, 94.5389°W
Report Text: KPWC 251154Z AUTO 28004KT 10SM CLR 07/00 A3001 RMK AO2
Loading
Personal Weather Stations






























Interactive Weather Map
Tropical Storm Tracking
New forecast layout! Learn more

10-Day Weather Forecast

Advertisements
Track Severe Weather on mobile